Time;durP1;ratioP1;P1;durP2;ratioP2;P2;SDS_P1;SDS_P2;PMS_P1;PMS_P2;Temp;Humidity;BMP_temperature;BMP_pressure;BME280_temperature;BME280_humidity;BME280_pressure;Samples;Min_cycle;Max_cycle;Signal;HPM_P1;HPM_P2
2023/09/01 00:00:46;;;;;;;8.75;2.65;;;15.60;99.90;;;;;;5011594;28;20049;-70
2023/09/01 00:03:13;;;;;;;5.22;2.35;;;;;;;;;;5011817;28;20112;-70
2023/09/01 00:05:39;;;;;;;4.47;2.40;;;15.80;99.90;;;;;;4995679;28;20038;-70
2023/09/01 00:08:05;;;;;;;4.85;2.60;;;15.60;99.90;;;;;;4994825;28;20552;-70
2023/09/01 00:10:35;;;;;;;5.85;2.35;;;15.70;99.90;;;;;;4994780;28;20045;-70
2023/09/01 00:13:02;;;;;;;4.78;2.75;;;15.70;99.90;;;;;;5011260;28;20125;-70
2023/09/01 00:15:28;;;;;;;3.83;2.17;;;15.70;99.90;;;;;;4995116;28;20444;-70
2023/09/01 00:17:53;;;;;;;7.82;2.70;;;15.50;99.90;;;;;;5010978;28;20045;-70
2023/09/01 00:20:20;;;;;;;4.93;2.60;;;;;;;;;;5012269;28;20121;-70
2023/09/01 00:22:46;;;;;;;8.15;2.80;;;;;;;;;;5025544;28;20041;-69
2023/09/01 00:25:12;;;;;;;5.07;2.95;;;;;;;;;;5030163;28;20079;-70
2023/09/01 00:27:38;;;;;;;5.80;3.17;;;;;;;;;;5014250;28;20052;-70
2023/09/01 00:30:04;;;;;;;4.90;2.35;;;;;;;;;;5030674;28;20045;-70
2023/09/01 00:32:30;;;;;;;4.72;2.25;;;;;;;;;;5030653;28;20037;-70
2023/09/01 00:34:57;;;;;;;4.13;2.15;;;15.20;99.90;;;;;;5030288;28;20524;-70
2023/09/01 00:37:23;;;;;;;5.28;2.97;;;15.20;99.90;;;;;;5014120;28;20041;-70
2023/09/01 00:39:49;;;;;;;4.88;2.50;;;;;;;;;;5030200;28;20048;-70
2023/09/01 00:42:14;;;;;;;6.22;2.90;;;15.40;99.90;;;;;;5029787;28;20409;-69
2023/09/01 00:44:40;;;;;;;5.75;2.80;;;;;;;;;;5030512;28;20045;-70
2023/09/01 00:47:07;;;;;;;6.57;2.65;;;15.20;99.90;;;;;;5031183;28;20059;-70
2023/09/01 00:49:35;;;;;;;4.78;2.80;;;15.30;99.90;;;;;;5029720;28;20048;-70
2023/09/01 00:52:01;;;;;;;5.78;2.88;;;15.40;99.90;;;;;;5030423;28;20112;-70
2023/09/01 00:54:26;;;;;;;5.38;3.30;;;15.30;99.90;;;;;;5030691;28;20076;-69
2023/09/01 00:56:54;;;;;;;7.28;2.92;;;15.40;99.90;;;;;;5030444;28;20486;-70
2023/09/01 00:59:20;;;;;;;4.90;2.60;;;15.30;99.90;;;;;;5030232;28;20037;-70
2023/09/01 01:01:47;;;;;;;5.57;2.92;;;15.30;99.90;;;;;;5029605;28;20041;-70
2023/09/01 01:04:15;;;;;;;7.00;2.67;;;15.30;99.90;;;;;;5030029;28;20128;-70
2023/09/01 01:06:47;;;;;;;4.47;2.60;;;15.30;99.90;;;;;;5030267;28;20038;-70
2023/09/01 01:09:38;;;;;;;3.38;2.70;;;15.20;99.90;;;;;;5030049;28;20528;-69
2023/09/01 01:12:05;;;;;;;7.43;3.10;;;;;;;;;;5029624;28;20165;-70
2023/09/01 01:14:45;;;;;;;4.45;2.47;;;15.20;99.90;;;;;;5012021;28;20034;-70
2023/09/01 01:17:12;;;;;;;3.75;2.28;;;15.30;99.90;;;;;;5030541;28;20037;-70
2023/09/01 01:20:03;;;;;;;4.00;3.05;;;15.20;99.90;;;;;;5029754;28;20049;-70
2023/09/01 01:22:40;;;;;;;6.70;2.95;;;15.20;99.90;;;;;;5030022;28;20485;-70
2023/09/01 01:25:11;;;;;;;6.25;3.10;;;15.30;99.90;;;;;;5029425;28;20037;-70
2023/09/01 01:27:46;;;;;;;4.50;2.50;;;15.00;99.90;;;;;;5030112;28;20042;-70
2023/09/01 01:30:15;;;;;;;6.40;3.15;;;15.10;99.90;;;;;;5029736;28;20044;-70
2023/09/01 01:32:42;;;;;;;3.33;2.45;;;15.10;99.90;;;;;;5028968;28;20041;-70
2023/09/01 01:35:40;;;;;;;5.63;2.80;;;15.30;99.90;;;;;;5029383;28;20068;-70
2023/09/01 01:38:15;;;;;;;3.55;2.70;;;15.20;99.90;;;;;;5030042;28;20060;-70
2023/09/01 01:40:43;;;;;;;5.05;3.60;;;15.20;99.90;;;;;;5029536;28;20041;-70
2023/09/01 01:43:11;;;;;;;3.47;2.65;;;14.90;99.90;;;;;;5029758;28;20045;-70
2023/09/01 01:45:40;;;;;;;7.28;2.85;;;15.00;99.90;;;;;;5030804;28;20037;-71
2023/09/01 01:48:07;;;;;;;3.95;2.80;;;;;;;;;;5031183;28;20045;-70
2023/09/01 01:50:33;;;;;;;3.60;2.85;;;;;;;;;;5013860;28;20041;-70
2023/09/01 01:52:59;;;;;;;3.85;2.75;;;15.10;99.90;;;;;;5030032;28;20128;-70
2023/09/01 01:55:25;;;;;;;3.88;2.95;;;15.10;99.90;;;;;;5029629;28;20120;-70
2023/09/01 01:57:50;;;;;;;5.80;3.63;;;15.20;99.90;;;;;;5029512;28;20128;-70
2023/09/01 02:00:16;;;;;;;5.45;3.75;;;15.20;99.90;;;;;;5029399;28;20114;-70
2023/09/01 02:02:42;;;;;;;3.53;2.50;;;;;;;;;;5029661;28;20048;-70
2023/09/01 02:05:09;;;;;;;3.65;3.00;;;15.10;99.90;;;;;;5030278;28;20405;-70
2023/09/01 02:07:34;;;;;;;4.13;2.85;;;15.20;99.90;;;;;;5030504;28;20068;-70
2023/09/01 02:10:00;;;;;;;4.97;3.22;;;14.90;99.90;;;;;;5029405;28;20489;-70
2023/09/01 02:12:26;;;;;;;6.88;2.90;;;15.00;99.90;;;;;;5029659;28;20037;-70
2023/09/01 02:14:53;;;;;;;5.97;3.42;;;15.00;99.90;;;;;;5032688;28;20071;-70
2023/09/01 02:17:18;;;;;;;4.38;3.28;;;15.00;99.90;;;;;;5033352;28;20052;-70
2023/09/01 02:19:44;;;;;;;4.68;3.08;;;15.00;99.90;;;;;;5033235;28;20362;-70
2023/09/01 02:22:10;;;;;;;6.38;2.80;;;15.00;99.90;;;;;;5032672;28;20045;-70
2023/09/01 02:24:35;;;;;;;5.43;3.00;;;15.00;99.90;;;;;;5032083;28;20040;-70
2023/09/01 02:27:01;;;;;;;6.47;3.53;;;;;;;;;;5015163;28;20041;-70
2023/09/01 02:29:27;;;;;;;4.35;3.13;;;;;;;;;;5033737;28;20041;-69
2023/09/01 02:31:53;;;;;;;4.80;3.38;;;;;;;;;;5032687;28;20041;-70
2023/09/01 02:34:19;;;;;;;6.55;3.33;;;14.90;99.90;;;;;;5032832;28;20044;-70
2023/09/01 02:36:45;;;;;;;5.65;3.25;;;15.10;99.90;;;;;;5033749;28;20440;-70
2023/09/01 02:39:11;;;;;;;5.85;3.00;;;14.70;99.90;;;;;;5032330;28;20041;-69
2023/09/01 02:41:37;;;;;;;6.00;3.22;;;15.00;99.90;;;;;;5032700;28;20096;-70
2023/09/01 02:44:04;;;;;;;8.00;3.15;;;15.10;99.90;;;;;;5032527;28;20038;-70
2023/09/01 02:46:30;;;;;;;3.42;2.85;;;14.80;99.90;;;;;;5031911;28;20046;-70
2023/09/01 02:48:56;;;;;;;5.10;3.30;;;;;;;;;;5032102;28;20091;-70
2023/09/01 02:51:22;;;;;;;6.55;3.47;;;14.80;99.90;;;;;;5032338;28;20041;-70
2023/09/01 02:53:48;;;;;;;5.30;3.03;;;15.00;99.90;;;;;;5032394;28;20083;-70
2023/09/01 02:56:13;;;;;;;9.50;3.45;;;15.00;99.90;;;;;;5032081;28;20073;-70
2023/09/01 02:58:39;;;;;;;4.95;2.80;;;14.80;99.90;;;;;;5032063;28;20037;-70
2023/09/01 03:01:10;;;;;;;6.32;3.08;;;15.00;99.90;;;;;;5032075;28;20041;-70
2023/09/01 03:03:37;;;;;;;6.22;2.90;;;15.00;99.90;;;;;;5032262;28;20042;-70
2023/09/01 03:06:08;;;;;;;7.10;3.13;;;14.90;99.90;;;;;;5033381;28;20519;-70
2023/09/01 03:08:34;;;;;;;4.78;2.85;;;14.80;99.90;;;;;;5032610;28;20048;-70
2023/09/01 03:11:01;;;;;;;3.50;2.70;;;14.80;99.90;;;;;;5032188;28;20623;-70
2023/09/01 03:13:27;;;;;;;4.10;3.03;;;15.00;99.90;;;;;;5032082;28;20034;-70
2023/09/01 03:15:56;;;;;;;4.93;3.28;;;14.90;99.90;;;;;;5031963;28;20409;-70
2023/09/01 03:18:23;;;;;;;6.40;3.75;;;14.90;99.90;;;;;;5033580;28;20050;-70
2023/09/01 03:20:50;;;;;;;5.63;3.25;;;14.80;99.90;;;;;;5032107;28;20088;-70
2023/09/01 03:23:16;;;;;;;4.25;2.90;;;14.80;99.90;;;;;;5031275;28;20038;-70
2023/09/01 03:25:41;;;;;;;6.32;3.10;;;14.60;99.90;;;;;;5031038;28;20450;-70
2023/09/01 03:28:07;;;;;;;6.20;3.47;;;14.60;99.90;;;;;;5033011;28;20049;-70
2023/09/01 03:30:32;;;;;;;3.85;2.85;;;14.50;99.90;;;;;;5033142;28;20041;-70
2023/09/01 03:32:58;;;;;;;6.07;3.45;;;15.20;99.90;;;;;;5033040;28;20053;-70
2023/09/01 03:35:24;;;;;;;4.55;3.13;;;14.80;99.90;;;;;;5031744;28;20516;-70
2023/09/01 03:37:49;;;;;;;6.35;3.30;;;14.50;99.90;;;;;;5031849;28;20033;-70
2023/09/01 03:40:16;;;;;;;5.30;2.88;;;14.30;99.90;;;;;;5031560;28;20045;-70
2023/09/01 03:42:41;;;;;;;6.03;3.15;;;14.20;99.90;;;;;;5031498;28;20124;-70
2023/09/01 03:45:07;;;;;;;4.30;2.65;;;14.30;99.90;;;;;;5031463;28;20128;-70
2023/09/01 03:47:33;;;;;;;3.85;3.03;;;14.10;99.90;;;;;;5031712;28;20406;-70
2023/09/01 03:49:59;;;;;;;5.32;3.20;;;14.50;99.90;;;;;;5031752;28;20122;-70
2023/09/01 03:52:24;;;;;;;6.50;2.78;;;14.50;99.90;;;;;;5031250;28;20068;-70
2023/09/01 03:54:50;;;;;;;3.83;3.22;;;14.10;99.90;;;;;;5014557;28;20045;-70
2023/09/01 03:57:16;;;;;;;5.57;3.13;;;14.20;99.90;;;;;;5031204;28;20045;-70
2023/09/01 03:59:43;;;;;;;5.75;3.15;;;14.90;99.90;;;;;;5031095;28;20044;-70
2023/09/01 04:02:09;;;;;;;6.03;3.58;;;14.10;99.90;;;;;;5031265;28;20694;-70
2023/09/01 04:04:34;;;;;;;8.80;3.08;;;14.10;99.90;;;;;;5030862;28;20041;-70
2023/09/01 04:07:00;;;;;;;19.38;4.07;;;14.00;99.90;;;;;;5030877;28;20413;-70
2023/09/01 04:09:26;;;;;;;3.92;3.25;;;14.20;99.90;;;;;;5030914;28;20045;-70
2023/09/01 04:11:51;;;;;;;3.95;3.08;;;14.00;99.90;;;;;;5031224;28;20076;-70
2023/09/01 04:14:17;;;;;;;4.53;2.97;;;13.90;99.90;;;;;;5031021;28;20041;-70
2023/09/01 04:16:43;;;;;;;4.75;2.78;;;14.50;99.90;;;;;;5030915;28;20041;-70
2023/09/01 04:19:09;;;;;;;5.30;3.10;;;14.00;99.90;;;;;;5030838;28;20050;-70
2023/09/01 04:21:35;;;;;;;3.92;2.80;;;14.00;99.90;;;;;;5030852;28;20073;-70
2023/09/01 04:24:01;;;;;;;3.85;2.80;;;13.80;99.90;;;;;;5031209;28;20131;-70
2023/09/01 04:26:26;;;;;;;5.50;3.40;;;13.90;99.90;;;;;;5030490;28;20044;-70
2023/09/01 04:28:52;;;;;;;6.25;3.22;;;13.90;99.90;;;;;;5030224;28;20043;-70
2023/09/01 04:31:25;;;;;;;5.43;3.55;;;13.80;99.90;;;;;;5029822;28;20636;-69
2023/09/01 04:33:50;;;;;;;6.10;3.58;;;13.70;99.90;;;;;;5030521;28;20041;-69
2023/09/01 04:36:16;;;;;;;3.85;3.30;;;14.00;99.90;;;;;;5030606;28;20045;-70
2023/09/01 04:38:42;;;;;;;11.95;3.78;;;14.00;99.90;;;;;;5030053;28;20091;-70
2023/09/01 04:41:07;;;;;;;4.82;3.25;;;13.80;99.90;;;;;;5030862;28;20077;-70
2023/09/01 04:43:33;;;;;;;3.45;2.97;;;14.40;99.90;;;;;;5030473;28;20038;-69
2023/09/01 04:45:59;;;;;;;7.20;4.28;;;13.80;99.90;;;;;;5030506;28;20095;-70
2023/09/01 04:48:26;;;;;;;4.10;3.42;;;14.00;99.90;;;;;;5030768;28;20038;-70
2023/09/01 04:50:51;;;;;;;6.00;3.03;;;14.00;99.90;;;;;;5030302;28;20409;-70
2023/09/01 04:53:17;;;;;;;4.68;3.20;;;14.70;99.90;;;;;;5030248;28;20040;-70
2023/09/01 04:55:43;;;;;;;5.15;3.75;;;13.80;99.90;;;;;;5013841;28;20077;-70
2023/09/01 04:58:09;;;;;;;7.53;3.50;;;14.80;99.90;;;;;;5030438;28;20041;-70
2023/09/01 05:00:35;;;;;;;5.95;3.90;;;13.80;99.90;;;;;;5030203;28;20199;-70
2023/09/01 05:03:01;;;;;;;6.50;3.85;;;14.00;99.90;;;;;;5013868;28;20041;-70
2023/09/01 05:05:27;;;;;;;9.50;4.22;;;13.70;99.90;;;;;;5031462;28;20041;-70
2023/09/01 05:07:53;;;;;;;5.47;3.30;;;14.00;99.90;;;;;;5031484;28;20459;-70
2023/09/01 05:10:18;;;;;;;6.38;3.33;;;13.90;99.90;;;;;;5031444;28;20037;-70
2023/09/01 05:12:44;;;;;;;4.47;3.22;;;13.60;99.90;;;;;;5029856;28;20116;-70
2023/09/01 05:15:11;;;;;;;4.38;3.63;;;14.80;99.90;;;;;;5030042;28;20037;-69
2023/09/01 05:17:37;;;;;;;4.45;3.20;;;14.70;99.90;;;;;;5030092;28;20041;-70
2023/09/01 05:20:07;;;;;;;6.22;3.22;;;14.20;99.90;;;;;;5031147;28;20041;-70
2023/09/01 05:22:35;;;;;;;7.07;3.15;;;14.10;99.90;;;;;;5029576;28;20096;-70
2023/09/01 05:25:02;;;;;;;5.95;3.33;;;14.10;99.90;;;;;;5030750;28;20532;-70
2023/09/01 05:27:28;;;;;;;7.65;4.13;;;14.20;99.90;;;;;;5031483;28;20087;-70
2023/09/01 05:29:54;;;;;;;7.45;3.83;;;14.30;99.90;;;;;;5029864;28;20179;-70
2023/09/01 05:32:21;;;;;;;8.57;4.10;;;;;;;;;;5013425;28;20043;-70
2023/09/01 05:34:47;;;;;;;5.03;3.85;;;14.40;99.90;;;;;;5031086;28;20042;-69
2023/09/01 05:37:12;;;;;;;7.35;3.53;;;14.30;99.90;;;;;;5025676;28;20064;-72
2023/09/01 05:39:39;;;;;;;7.40;3.65;;;14.50;99.90;;;;;;5010060;28;20046;-70
2023/09/01 05:42:06;;;;;;;5.88;3.63;;;14.40;99.90;;;;;;5011219;28;20038;-70
2023/09/01 05:44:32;;;;;;;6.95;3.75;;;14.70;99.90;;;;;;5009395;28;20449;-70
2023/09/01 05:46:57;;;;;;;4.80;2.90;;;14.60;99.90;;;;;;4992874;28;20034;-70
2023/09/01 05:49:24;;;;;;;9.10;4.35;;;14.70;99.90;;;;;;5011221;28;20494;-70
2023/09/01 05:51:50;;;;;;;7.47;3.47;;;15.10;99.90;;;;;;5015035;28;20038;-70
2023/09/01 05:54:19;;;;;;;9.20;4.03;;;14.60;99.90;;;;;;5012983;28;20038;-70
2023/09/01 05:56:48;;;;;;;4.78;3.55;;;14.90;99.90;;;;;;4997266;28;20045;-70
2023/09/01 05:59:13;;;;;;;7.05;4.40;;;15.00;99.90;;;;;;5013715;28;20137;-70
2023/09/01 06:01:40;;;;;;;5.88;3.40;;;14.80;99.90;;;;;;5013849;28;20038;-70
2023/09/01 06:04:05;;;;;;;5.50;3.38;;;15.10;99.90;;;;;;5013833;28;20100;-71
2023/09/01 06:06:32;;;;;;;5.20;3.90;;;15.00;99.90;;;;;;5013679;28;20038;-70
2023/09/01 06:09:04;;;;;;;6.75;3.63;;;15.10;99.90;;;;;;5013797;28;20034;-71
2023/09/01 06:11:30;;;;;;;8.18;4.18;;;15.10;99.90;;;;;;5013696;28;20084;-70
2023/09/01 06:13:56;;;;;;;8.20;3.75;;;15.80;99.90;;;;;;4997044;28;20042;-71
2023/09/01 06:16:22;;;;;;;7.15;4.20;;;15.20;99.90;;;;;;4989031;28;20069;-69
2023/09/01 06:18:48;;;;;;;9.00;4.22;;;15.30;99.90;;;;;;4998640;28;20399;-69
2023/09/01 06:21:16;;;;;;;7.30;3.78;;;15.20;99.90;;;;;;4996685;28;20133;-70
2023/09/01 06:23:44;;;;;;;5.40;3.38;;;15.50;99.90;;;;;;4993417;28;20042;-70
2023/09/01 06:26:14;;;;;;;6.18;4.10;;;15.50;99.90;;;;;;4995252;28;20038;-69
2023/09/01 06:28:40;;;;;;;8.10;3.20;;;16.00;99.90;;;;;;4996122;28;20096;-69
2023/09/01 06:31:07;;;;;;;6.03;3.13;;;16.30;99.90;;;;;;4976500;28;20040;-70
2023/09/01 06:33:32;;;;;;;10.18;3.75;;;16.00;99.90;;;;;;4978803;28;20038;-70
2023/09/01 06:35:58;;;;;;;5.75;3.47;;;16.20;99.90;;;;;;4998613;28;20045;-70
2023/09/01 06:38:24;;;;;;;4.32;3.00;;;16.20;99.90;;;;;;4978073;28;20050;-70
2023/09/01 06:40:49;;;;;;;10.27;3.13;;;16.40;99.90;;;;;;5001433;28;20046;-70
2023/09/01 06:43:15;;;;;;;6.55;2.88;;;16.60;99.90;;;;;;5010006;28;20038;-70
2023/09/01 06:45:40;;;;;;;4.63;2.50;;;16.20;99.90;;;;;;5002113;28;20040;-70
2023/09/01 06:48:06;;;;;;;4.78;2.67;;;16.60;99.90;;;;;;5004551;28;20037;-70
2023/09/01 06:50:32;;;;;;;5.65;3.03;;;16.60;99.90;;;;;;5001179;28;20379;-69
2023/09/01 06:52:58;;;;;;;4.72;2.38;;;16.60;99.90;;;;;;5003375;28;20038;-68
2023/09/01 06:55:24;;;;;;;5.22;2.55;;;16.50;99.90;;;;;;5004661;28;20045;-71
2023/09/01 06:57:50;;;;;;;6.05;2.72;;;16.70;99.90;;;;;;5009405;28;20038;-70
2023/09/01 07:00:16;;;;;;;6.15;2.70;;;16.70;99.90;;;;;;4993538;28;20049;-69
2023/09/01 07:02:41;;;;;;;4.60;2.88;;;16.90;99.90;;;;;;5003802;28;20044;-69
2023/09/01 07:05:07;;;;;;;5.80;2.60;;;16.80;99.90;;;;;;5008954;28;20033;-70
2023/09/01 07:07:33;;;;;;;6.28;2.90;;;16.80;99.90;;;;;;5008872;28;20069;-70
2023/09/01 07:09:58;;;;;;;6.05;2.72;;;17.40;99.90;;;;;;5008795;28;20042;-70
2023/09/01 07:12:24;;;;;;;6.38;2.72;;;17.30;99.90;;;;;;5009974;28;20105;-69
2023/09/01 07:14:49;;;;;;;4.43;2.60;;;17.40;99.90;;;;;;5000248;28;20069;-69
2023/09/01 07:17:21;;;;;;;4.88;2.78;;;17.40;99.90;;;;;;4992328;28;20040;-70
2023/09/01 07:19:47;;;;;;;5.13;2.85;;;17.50;99.90;;;;;;4992421;28;20037;-67
2023/09/01 07:22:12;;;;;;;6.18;2.13;;;17.70;99.90;;;;;;5008549;28;20128;-70
2023/09/01 07:24:39;;;;;;;3.20;2.03;;;17.80;99.90;;;;;;4992353;28;20128;-70
2023/09/01 07:27:06;;;;;;;4.63;2.50;;;17.70;99.90;;;;;;5000463;28;20038;-70
2023/09/01 07:29:32;;;;;;;4.57;2.50;;;17.90;99.90;;;;;;4993608;28;20088;-69
2023/09/01 07:31:59;;;;;;;5.13;2.60;;;18.00;99.90;;;;;;4994801;28;20038;-70
2023/09/01 07:34:25;;;;;;;4.00;2.53;;;17.70;99.90;;;;;;5007394;28;20685;-70
2023/09/01 07:36:51;;;;;;;5.25;3.10;;;17.90;99.90;;;;;;5009249;28;20037;-70
2023/09/01 07:39:17;;;;;;;5.65;2.60;;;17.80;99.90;;;;;;5001030;28;20583;-71
2023/09/01 07:41:42;;;;;;;7.57;3.05;;;17.60;99.90;;;;;;4989063;28;20041;-71
2023/09/01 07:44:08;;;;;;;6.10;2.90;;;17.70;99.90;;;;;;4992241;28;20121;-71
2023/09/01 07:46:34;;;;;;;7.20;2.90;;;18.30;99.90;;;;;;5008632;28;20045;-72
2023/09/01 07:49:03;;;;;;;8.68;3.05;;;17.90;99.90;;;;;;5011267;28;20418;-71
2023/09/01 07:51:28;;;;;;;6.03;2.95;;;18.20;99.90;;;;;;4994923;28;20413;-71
2023/09/01 07:53:54;;;;;;;6.30;2.90;;;18.10;99.90;;;;;;4994980;28;20033;-72
2023/09/01 07:56:21;;;;;;;5.95;3.20;;;18.40;99.90;;;;;;5009950;28;20120;-72
2023/09/01 07:58:47;;;;;;;5.45;2.92;;;18.60;99.90;;;;;;5018844;28;20073;-72
2023/09/01 08:01:12;;;;;;;5.68;2.67;;;18.50;99.90;;;;;;5012507;28;20115;-72
2023/09/01 08:03:38;;;;;;;4.85;2.92;;;18.40;99.90;;;;;;5011182;28;20034;-71
2023/09/01 08:06:04;;;;;;;4.78;2.70;;;18.60;99.90;;;;;;5012487;28;20049;-72
2023/09/01 08:08:30;;;;;;;5.22;2.97;;;18.80;99.90;;;;;;5011618;28;20232;-71
2023/09/01 08:10:56;;;;;;;8.77;3.22;;;18.80;99.90;;;;;;5010892;28;20121;-71
2023/09/01 08:13:22;;;;;;;5.93;2.85;;;19.10;99.90;;;;;;5009002;28;20145;-71
2023/09/01 08:15:48;;;;;;;11.50;2.65;;;19.60;99.90;;;;;;4986172;28;20052;-71
2023/09/01 08:18:13;;;;;;;6.40;2.88;;;19.10;99.90;;;;;;4990686;28;20506;-71
2023/09/01 08:20:40;;;;;;;5.20;2.35;;;19.30;99.90;;;;;;5007587;28;20092;-71
2023/09/01 08:23:06;;;;;;;5.65;2.58;;;19.40;99.90;;;;;;5000933;28;20077;-72
2023/09/01 08:25:35;;;;;;;4.05;2.70;;;19.10;99.90;;;;;;4994749;28;20532;-72
2023/09/01 08:28:00;;;;;;;4.65;2.85;;;19.40;99.90;;;;;;4997600;28;20038;-72
2023/09/01 08:30:26;;;;;;;5.15;2.50;;;19.10;99.90;;;;;;4999964;28;20399;-71
2023/09/01 08:32:52;;;;;;;4.45;2.17;;;19.40;99.90;;;;;;5008270;28;20030;-72
2023/09/01 08:35:18;;;;;;;6.03;2.33;;;19.40;99.90;;;;;;5022492;28;20088;-72
2023/09/01 08:37:43;;;;;;;5.03;2.35;;;19.20;99.90;;;;;;5031639;28;20102;-71
2023/09/01 08:40:10;;;;;;;6.22;2.28;;;19.40;99.90;;;;;;5015269;28;20075;-71
2023/09/01 08:42:42;;;;;;;6.70;2.53;;;19.30;99.90;;;;;;5030827;28;20409;-70
2023/09/01 08:45:08;;;;;;;4.88;2.50;;;19.30;99.90;;;;;;5030355;28;20037;-71
2023/09/01 08:47:42;;;;;;;3.47;2.00;;;19.40;99.90;;;;;;5030467;28;20041;-70
2023/09/01 08:50:08;;;;;;;4.40;1.85;;;19.70;99.90;;;;;;5013973;28;20053;-72
2023/09/01 08:52:35;;;;;;;5.75;2.00;;;19.60;99.90;;;;;;5014089;28;20584;-72
2023/09/01 08:55:02;;;;;;;4.97;2.13;;;19.70;99.90;;;;;;4974882;28;20057;-72
2023/09/01 08:57:27;;;;;;;7.65;1.98;;;19.60;99.90;;;;;;4991127;28;20049;-73
2023/09/01 08:59:53;;;;;;;4.57;2.15;;;19.80;99.90;;;;;;5007457;28;20509;-72
2023/09/01 09:02:18;;;;;;;4.95;1.60;;;19.50;99.90;;;;;;4990964;28;20050;-73
2023/09/01 09:04:46;;;;;;;6.22;2.42;;;19.50;99.90;;;;;;5007431;28;20133;-72
2023/09/01 09:07:20;;;;;;;6.60;1.63;;;19.60;99.90;;;;;;4991042;28;20046;-72
2023/09/01 09:10:05;;;;;;;5.30;1.73;;;19.60;99.90;;;;;;4991061;28;20375;-73
2023/09/01 09:12:41;;;;;;;2.33;1.67;;;19.80;99.90;;;;;;5007248;28;20042;-72
2023/09/01 09:15:08;;;;;;;5.00;1.98;;;19.60;99.90;;;;;;4990500;28;20745;-73
2023/09/01 09:17:45;;;;;;;3.50;1.52;;;19.80;99.90;;;;;;4991154;28;20442;-72
2023/09/01 09:20:12;;;;;;;7.60;2.10;;;20.00;99.90;;;;;;5007141;28;20100;-72
2023/09/01 09:22:56;;;;;;;6.38;1.90;;;19.80;99.90;;;;;;4990761;28;20145;-72
2023/09/01 09:25:33;;;;;;;7.68;1.70;;;20.10;99.90;;;;;;4994488;28;20043;-73
2023/09/01 09:28:00;;;;;;;2.47;1.48;;;20.00;99.90;;;;;;4994229;28;20046;-73
2023/09/01 09:30:27;;;;;;;7.43;1.80;;;20.20;99.90;;;;;;5013525;28;20029;-72
2023/09/01 09:33:06;;;;;;;5.82;1.45;;;20.20;99.90;;;;;;5014177;28;20123;-72
2023/09/01 09:35:47;;;;;;;5.15;1.45;;;19.90;99.90;;;;;;5029296;28;20527;-72
2023/09/01 09:38:13;;;;;;;8.30;1.42;;;19.90;99.90;;;;;;5034005;28;20179;-72
2023/09/01 09:40:38;;;;;;;4.50;1.75;;;19.90;99.90;;;;;;5033785;28;20099;-72
2023/09/01 09:43:08;;;;;;;6.93;1.52;;;20.30;99.90;;;;;;5034102;28;20614;-72
2023/09/01 09:45:34;;;;;;;6.15;1.80;;;19.90;99.90;;;;;;5035299;28;20041;-72
2023/09/01 09:48:05;;;;;;;3.53;1.90;;;20.10;99.90;;;;;;5033774;28;20130;-72
2023/09/01 09:50:32;;;;;;;3.90;1.55;;;20.10;99.90;;;;;;5027351;28;20501;-73
2023/09/01 09:53:02;;;;;;;7.18;1.50;;;20.00;99.90;;;;;;5010998;28;20033;-72
2023/09/01 09:55:30;;;;;;;5.53;2.00;;;20.10;99.90;;;;;;4997471;28;20070;-72
2023/09/01 09:58:04;;;;;;;5.80;1.60;;;19.90;99.90;;;;;;5014047;28;20129;-72
2023/09/01 10:00:45;;;;;;;4.63;2.20;;;19.90;99.90;;;;;;5013681;28;20042;-72
2023/09/01 10:03:11;;;;;;;5.15;2.70;;;19.90;99.90;;;;;;5014008;28;20474;-72
2023/09/01 10:05:38;;;;;;;4.63;1.42;;;19.80;99.90;;;;;;4997650;28;20041;-72
2023/09/01 10:08:06;;;;;;;5.50;2.13;;;20.10;99.90;;;;;;4998470;28;20034;-72
2023/09/01 10:10:33;;;;;;;4.85;1.90;;;20.00;99.90;;;;;;5013550;28;20409;-72
2023/09/01 10:13:09;;;;;;;4.85;1.85;;;20.30;99.90;;;;;;4996794;28;20065;-72
2023/09/01 10:15:36;;;;;;;8.02;2.15;;;20.50;99.90;;;;;;5014020;28;20034;-72
2023/09/01 10:18:04;;;;;;;4.38;1.73;;;20.80;99.90;;;;;;5013557;28;20038;-73
2023/09/01 10:20:35;;;;;;;3.83;1.77;;;20.70;99.90;;;;;;5013251;28;20042;-72
2023/09/01 10:23:02;;;;;;;3.53;1.83;;;20.70;99.90;;;;;;5013226;28;20040;-73
2023/09/01 10:25:29;;;;;;;5.85;1.77;;;20.70;99.90;;;;;;5012081;28;20041;-72
2023/09/01 10:28:04;;;;;;;7.00;1.70;;;20.80;99.90;;;;;;5013085;28;20417;-72
2023/09/01 10:30:47;;;;;;;2.65;1.38;;;20.60;99.90;;;;;;4996755;28;20045;-73
2023/09/01 10:33:25;;;;;;;9.85;2.35;;;20.80;99.90;;;;;;5013379;28;20096;-72
2023/09/01 10:35:53;;;;;;;5.75;1.90;;;20.90;99.90;;;;;;5030627;28;20038;-72
2023/09/01 10:38:34;;;;;;;3.80;1.25;;;21.50;99.90;;;;;;5032871;28;20127;-73
2023/09/01 10:41:00;;;;;;;5.40;1.95;;;21.30;99.90;;;;;;5034197;28;20072;-73
2023/09/01 10:43:35;;;;;;;3.88;2.00;;;21.40;99.90;;;;;;5032201;28;20389;-69
2023/09/01 10:46:16;;;;;;;3.25;1.70;;;21.10;99.90;;;;;;5032539;28;20048;-69
2023/09/01 10:48:58;;;;;;;3.53;1.60;;;21.40;99.90;;;;;;5032452;28;20084;-69
2023/09/01 10:51:33;;;;;;;4.22;1.90;;;21.70;99.90;;;;;;5032880;28;20037;-68
2023/09/01 10:54:00;;;;;;;5.60;1.92;;;21.90;99.90;;;;;;5032774;28;20037;-71
2023/09/01 10:56:27;;;;;;;5.28;1.65;;;22.20;99.90;;;;;;5014420;28;20053;-71
2023/09/01 10:58:54;;;;;;;4.88;1.65;;;22.50;99.90;;;;;;4992750;28;20524;-70
2023/09/01 11:01:30;;;;;;;7.72;1.80;;;23.10;99.90;;;;;;5008917;28;20046;-70
2023/09/01 11:04:16;;;;;;;6.68;2.35;;;22.10;99.90;;;;;;5011844;28;20046;-71
2023/09/01 11:07:00;;;;;;;3.97;1.85;;;21.70;99.90;;;;;;5010635;28;20038;-71
2023/09/01 11:09:48;;;;;;;4.97;2.20;;;21.70;99.90;;;;;;5012145;28;20060;-72
2023/09/01 11:12:14;;;;;;;4.07;2.00;;;21.60;99.90;;;;;;5011582;28;20092;-71
2023/09/01 11:14:57;;;;;;;6.35;2.83;;;21.70;99.90;;;;;;5012877;28;20037;-72
2023/09/01 11:17:41;;;;;;;6.78;2.83;;;21.90;99.90;;;;;;5012153;28;20112;-71
2023/09/01 11:20:09;;;;;;;5.43;2.50;;;21.90;99.90;;;;;;5012267;28;20076;-71
2023/09/01 11:22:40;;;;;;;8.75;3.40;;;22.10;99.90;;;;;;5012514;28;20149;-71
2023/09/01 11:25:16;;;;;;;5.72;2.78;;;22.00;99.90;;;;;;5012078;28;20049;-72
2023/09/01 11:27:46;;;;;;;5.85;2.20;;;21.70;99.90;;;;;;5012234;28;20515;-71
2023/09/01 11:30:12;;;;;;;7.70;1.77;;;22.10;99.90;;;;;;5012458;28;20037;-71
2023/09/01 11:32:38;;;;;;;4.65;2.70;;;22.40;99.90;;;;;;5012055;28;20042;-71
2023/09/01 11:35:05;;;;;;;8.50;2.85;;;22.50;99.90;;;;;;5012082;28;20050;-71
2023/09/01 11:37:39;;;;;;;8.85;3.40;;;22.80;99.90;;;;;;5012070;28;20453;-71
2023/09/01 11:40:08;;;;;;;5.35;2.67;;;22.80;99.90;;;;;;5012333;28;20046;-71
2023/09/01 11:42:36;;;;;;;4.45;2.20;;;23.00;99.90;;;;;;4995741;28;20553;-71
2023/09/01 11:45:10;;;;;;;6.15;2.55;;;22.40;99.90;;;;;;4995192;28;20045;-70
2023/09/01 11:47:36;;;;;;;6.65;2.80;;;22.60;99.90;;;;;;5012230;28;20522;-71
2023/09/01 11:50:03;;;;;;;4.70;2.60;;;22.20;99.90;;;;;;5011560;28;20069;-71
2023/09/01 11:53:08;;;;;;;4.85;2.20;;;22.60;99.90;;;;;;5017567;22;20056;-68
2023/09/01 11:56:26;;;;;;;;;;;;;;;;;;;;;
2023/09/01 11:58:43;;;;;;;6.18;2.97;;;22.10;99.90;;;;;;4974302;28;20589;-68
2023/09/01 12:01:19;;;;;;;6.20;2.47;;;21.90;99.90;;;;;;4996053;28;20097;-68
2023/09/01 12:03:53;;;;;;;9.35;3.95;;;22.20;99.90;;;;;;4995865;28;20564;-68
2023/09/01 12:06:56;;;;;;;;;;;;;;;;;;;;;
2023/09/01 12:09:35;;;;;;;3.88;2.63;;;21.90;99.90;;;;;;4995246;28;20132;-68
2023/09/01 12:12:04;;;;;;;9.40;2.65;;;22.30;99.90;;;;;;4995630;28;20057;-68
2023/09/01 12:14:38;;;;;;;5.95;2.65;;;22.50;99.90;;;;;;4995770;28;20038;-69
2023/09/01 12:17:58;;;;;;;6.63;2.70;;;22.30;99.90;;;;;;4979905;28;20038;-69
2023/09/01 12:20:50;;;;;;;6.03;2.42;;;22.40;99.90;;;;;;4995827;28;20049;-68
2023/09/01 12:23:49;;;;;;;6.57;2.83;;;22.20;99.90;;;;;;5012364;28;20049;-71
2023/09/01 12:26:50;;;;;;;8.27;2.95;;;22.50;99.90;;;;;;4994825;28;20066;-69
2023/09/01 12:29:31;;;;;;;8.07;2.58;;;22.20;99.90;;;;;;4977690;28;20137;-69
2023/09/01 12:32:10;;;;;;;11.40;3.17;;;22.40;99.90;;;;;;4995044;28;20053;-69
2023/09/01 12:34:38;;;;;;;4.93;2.30;;;22.20;99.90;;;;;;4995228;28;20053;-68
2023/09/01 12:37:41;;;;;;;7.70;2.60;;;22.40;99.90;;;;;;4995256;28;20155;-69
2023/09/01 12:40:29;;;;;;;5.85;2.20;;;22.90;99.90;;;;;;4989503;28;20057;-69
2023/09/01 12:43:18;;;;;;;7.60;2.67;;;23.10;99.90;;;;;;4995207;28;20049;-69
2023/09/01 12:46:05;;;;;;;;;;;;;;;;;;;;;
2023/09/01 12:51:40;;;;;;;7.93;3.28;;;23.10;99.90;;;;;;4994348;28;20042;-69
2023/09/01 12:54:53;;;;;;;6.38;2.60;;;23.10;99.90;;;;;;4990281;28;20088;-68
2023/09/01 12:57:45;;;;;;;6.82;2.45;;;23.40;99.90;;;;;;4986279;28;20057;-68
2023/09/01 13:00:23;;;;;;;8.35;2.95;;;23.70;99.90;;;;;;4987310;28;20045;-69
2023/09/01 13:03:13;;;;;;;;;;;;;;;;;;;;;
2023/09/01 13:05:49;;;;;;;5.85;2.90;;;23.60;99.90;;;;;;4994156;28;20054;-69
2023/09/01 13:08:27;;;;;;;7.28;2.85;;;23.70;99.90;;;;;;4978210;28;20038;-69
2023/09/01 13:11:09;;;;;;;7.88;2.67;;;23.40;99.90;;;;;;5012619;28;20038;-69
2023/09/01 13:13:41;;;;;;;6.72;2.83;;;23.20;99.90;;;;;;4979016;28;20089;-70